Time;durP1;ratioP1;P1;durP2;ratioP2;P2;SDS_P1;SDS_P2;PMS_P1;PMS_P2;Temp;Humidity;BMP_temperature;BMP_pressure;BME280_temperature;BME280_humidity;BME280_pressure;Samples;Min_cycle;Max_cycle;Signal;HPM_P1;HPM_P2
2021/01/02 00:01:37;;;;;;;15.30;8.47;;;1.60;99.90;;;;;;4205976;28;20715;-46
2021/01/02 00:03:58;;;;;;;14.77;8.43;;;1.60;99.90;;;;;;4207270;28;20269;-43
2021/01/02 00:06:09;;;;;;;;;;;1.50;99.90;;;;;;4206983;28;20307;-47
2021/01/02 00:08:19;;;;;;;14.18;7.70;;;1.60;99.90;;;;;;4207796;28;19919;-42
2021/01/02 00:10:21;;;;;;;17.70;9.80;;;1.60;99.90;;;;;;4206321;28;20048;-45
2021/01/02 00:12:53;;;;;;;15.27;9.40;;;1.60;99.90;;;;;;4207364;28;20280;-43
2021/01/02 00:14:57;;;;;;;16.43;8.90;;;1.60;99.90;;;;;;4206028;28;20261;-44
2021/01/02 00:17:13;;;;;;;16.60;8.77;;;1.60;99.90;;;;;;4207080;28;20310;-44
2021/01/02 00:19:48;;;;;;;15.10;8.67;;;1.60;99.90;;;;;;4206826;28;20294;-49
2021/01/02 00:21:52;;;;;;;14.17;8.43;;;1.60;99.90;;;;;;4206758;28;20333;-46
2021/01/02 00:24:04;;;;;;;16.57;9.07;;;1.60;99.90;;;;;;4206518;28;20273;-46
2021/01/02 00:26:20;;;;;;;16.10;8.37;;;1.50;99.90;;;;;;4206163;28;20270;-48
2021/01/02 00:28:28;;;;;;;20.63;10.10;;;1.50;99.90;;;;;;4207599;28;20357;-46
2021/01/02 00:30:41;;;;;;;13.97;8.40;;;1.50;99.90;;;;;;4204592;28;20265;-50
2021/01/02 00:33:04;;;;;;;17.57;9.13;;;1.50;99.90;;;;;;4206991;28;20397;-50
2021/01/02 00:35:14;;;;;;;16.60;8.80;;;1.50;99.90;;;;;;4206278;28;20307;-44
2021/01/02 00:37:55;;;;;;;16.33;9.70;;;1.50;99.90;;;;;;4207207;28;20301;-46
2021/01/02 00:40:09;;;;;;;14.38;8.80;;;1.50;99.90;;;;;;4203143;28;20354;-43
2021/01/02 00:42:13;;;;;;;15.00;8.77;;;1.50;99.90;;;;;;4207081;28;20065;-48
2021/01/02 00:44:15;;;;;;;19.00;9.87;;;1.50;99.90;;;;;;4205795;28;20318;-45
2021/01/02 00:46:16;;;;;;;17.33;10.17;;;1.50;99.90;;;;;;4207260;28;20276;-51
2021/01/02 00:48:18;;;;;;;15.60;9.17;;;1.40;99.90;;;;;;4205701;28;20296;-44
2021/01/02 00:50:21;;;;;;;16.50;9.27;;;1.40;99.90;;;;;;4207608;28;20337;-46
2021/01/02 00:52:45;;;;;;;16.43;10.40;;;1.40;99.90;;;;;;4205994;28;20310;-46
2021/01/02 00:55:26;;;;;;;18.60;10.00;;;1.40;99.90;;;;;;4207109;28;20327;-43
2021/01/02 00:57:48;;;;;;;16.73;8.82;;;1.40;99.90;;;;;;4188955;28;20276;-43
2021/01/02 01:00:06;;;;;;;17.90;10.00;;;1.40;99.90;;;;;;4210434;28;20580;-47
2021/01/02 01:02:25;;;;;;;18.40;10.57;;;1.40;99.90;;;;;;4208807;28;20816;-45
2021/01/02 01:04:47;;;;;;;17.63;10.80;;;1.40;99.90;;;;;;4210072;28;20277;-46
2021/01/02 01:06:54;;;;;;;18.03;9.73;;;1.40;99.90;;;;;;4209043;28;20326;-45
2021/01/02 01:09:03;;;;;;;21.47;10.53;;;1.40;99.90;;;;;;4210023;28;20281;-45
2021/01/02 01:11:10;;;;;;;18.60;10.20;;;1.50;99.90;;;;;;4208907;28;20280;-44
2021/01/02 01:13:23;;;;;;;21.63;12.20;;;1.50;99.90;;;;;;4209994;28;20265;-44
2021/01/02 01:15:24;;;;;;;21.97;10.80;;;1.50;99.90;;;;;;4209023;28;20268;-48
2021/01/02 01:17:32;;;;;;;19.67;10.90;;;1.50;99.90;;;;;;4209848;28;20328;-43
2021/01/02 01:19:34;;;;;;;18.33;10.33;;;1.40;99.90;;;;;;4209395;28;20269;-48
2021/01/02 01:21:39;;;;;;;17.07;10.13;;;1.40;99.90;;;;;;4209516;28;20317;-46
2021/01/02 01:24:12;;;;;;;19.63;9.93;;;1.40;99.90;;;;;;4208595;28;20330;-48
2021/01/02 01:27:02;;;;;;;19.27;10.27;;;1.40;99.90;;;;;;4209078;28;20276;-46
2021/01/02 01:29:04;;;;;;;18.80;10.43;;;1.40;99.90;;;;;;4190591;28;20834;-48
2021/01/02 01:31:05;;;;;;;17.87;10.10;;;1.40;99.90;;;;;;4208425;28;20252;-48
2021/01/02 01:33:08;;;;;;;17.73;9.90;;;1.40;99.90;;;;;;4209425;28;20282;-45
2021/01/02 01:35:12;;;;;;;17.87;9.63;;;1.30;99.90;;;;;;4208929;28;20264;-44
2021/01/02 01:37:17;;;;;;;18.63;10.37;;;1.30;99.90;;;;;;4208294;28;20288;-43
2021/01/02 01:39:23;;;;;;;18.90;10.03;;;1.30;99.90;;;;;;4209472;28;20659;-49
2021/01/02 01:41:34;;;;;;;17.93;9.60;;;1.30;99.90;;;;;;4208332;28;20334;-47
2021/01/02 01:44:19;;;;;;;16.43;9.17;;;1.30;99.90;;;;;;4208796;28;20381;-45
2021/01/02 01:46:32;;;;;;;19.77;9.80;;;1.20;99.90;;;;;;4209456;28;20261;-44
2021/01/02 01:48:52;;;;;;;18.03;9.80;;;1.20;99.90;;;;;;4208669;28;20300;-43
2021/01/02 01:51:02;;;;;;;16.97;10.00;;;1.10;99.90;;;;;;4209493;28;20264;-43
2021/01/02 01:53:48;;;;;;;17.20;9.75;;;1.10;99.90;;;;;;4207737;28;20328;-46
2021/01/02 01:55:57;;;;;;;18.73;10.47;;;1.10;99.90;;;;;;4189868;28;20078;-44
2021/01/02 01:58:11;;;;;;;19.33;10.43;;;1.10;99.90;;;;;;4200340;28;20864;-45
2021/01/02 02:00:18;;;;;;;18.10;9.57;;;1.00;99.90;;;;;;4209344;28;20322;-45
2021/01/02 02:02:39;;;;;;;21.57;11.40;;;1.00;99.90;;;;;;4207509;28;20353;-46
2021/01/02 02:05:04;;;;;;;21.88;10.60;;;1.00;99.90;;;;;;4208844;28;20753;-49
2021/01/02 02:07:15;;;;;;;22.37;11.70;;;0.90;99.90;;;;;;4207754;28;20542;-44
2021/01/02 02:09:21;;;;;;;23.25;11.80;;;0.90;99.90;;;;;;4208279;28;20760;-45
2021/01/02 02:11:46;;;;;;;19.77;10.40;;;0.90;99.90;;;;;;4207559;28;20569;-44
2021/01/02 02:13:50;;;;;;;21.90;11.40;;;0.90;99.90;;;;;;4208436;28;20765;-46
2021/01/02 02:15:55;;;;;;;25.03;12.27;;;0.80;99.90;;;;;;4191392;28;20322;-44
2021/01/02 02:18:07;;;;;;;23.17;11.63;;;0.80;99.90;;;;;;4192449;28;20309;-44
2021/01/02 02:20:10;;;;;;;24.50;12.30;;;0.80;99.90;;;;;;4191762;28;20330;-46
2021/01/02 02:22:16;;;;;;;22.57;10.93;;;0.70;99.90;;;;;;4206821;28;21040;-45
2021/01/02 02:24:22;;;;;;;19.63;10.40;;;0.70;99.90;;;;;;4207631;28;20303;-46
2021/01/02 02:26:32;;;;;;;22.07;10.83;;;0.70;99.90;;;;;;4208406;28;20788;-48
2021/01/02 02:28:47;;;;;;;18.77;11.00;;;0.70;99.90;;;;;;4207505;28;20353;-47
2021/01/02 02:30:55;;;;;;;19.77;11.00;;;0.70;99.90;;;;;;4208960;28;20277;-44
2021/01/02 02:32:56;;;;;;;22.03;11.87;;;0.60;99.90;;;;;;4206547;28;20314;-43
2021/01/02 02:34:58;;;;;;;18.90;10.23;;;0.60;99.90;;;;;;4208720;28;20273;-45
2021/01/02 02:36:59;;;;;;;24.07;12.03;;;0.60;99.90;;;;;;4207097;28;20272;-46
2021/01/02 02:39:05;;;;;;;19.77;11.20;;;0.50;99.90;;;;;;4208687;28;20269;-48
2021/01/02 02:41:09;;;;;;;24.13;11.17;;;0.50;99.90;;;;;;4207053;28;20280;-44
2021/01/02 02:43:11;;;;;;;23.40;11.03;;;0.50;99.90;;;;;;4208409;28;20330;-45
2021/01/02 02:45:15;;;;;;;19.93;10.63;;;0.50;99.90;;;;;;4207208;28;20268;-51
2021/01/02 02:47:18;;;;;;;15.67;9.77;;;0.40;99.90;;;;;;4208601;28;20272;-43
2021/01/02 02:49:23;;;;;;;21.87;9.43;;;0.40;99.90;;;;;;4207504;28;20290;-49
2021/01/02 02:51:27;;;;;;;18.20;10.37;;;0.40;99.90;;;;;;4208577;28;20338;-46
2021/01/02 02:53:28;;;;;;;20.07;10.40;;;0.40;99.90;;;;;;4207359;28;20328;-48
2021/01/02 02:55:30;;;;;;;20.07;9.77;;;0.30;99.90;;;;;;4207787;28;20629;-50
2021/01/02 02:57:33;;;;;;;20.70;10.77;;;0.40;99.90;;;;;;4207226;28;20273;-48
2021/01/02 02:59:34;;;;;;;21.20;10.93;;;0.30;99.90;;;;;;4208126;28;20276;-46
2021/01/02 03:01:35;;;;;;;18.30;10.13;;;0.30;99.90;;;;;;4207393;28;21113;-46
2021/01/02 03:03:36;;;;;;;19.63;10.30;;;0.30;99.90;;;;;;4207398;28;20265;-50
2021/01/02 03:05:40;;;;;;;17.43;10.20;;;0.30;99.90;;;;;;4207203;28;20276;-46
2021/01/02 03:07:43;;;;;;;17.03;9.57;;;0.20;99.90;;;;;;4206517;28;20345;-50
2021/01/02 03:09:45;;;;;;;19.53;10.27;;;0.20;99.90;;;;;;4207907;28;20334;-46
2021/01/02 03:11:46;;;;;;;22.77;11.37;;;0.20;99.90;;;;;;4206957;28;20256;-44
2021/01/02 03:13:47;;;;;;;17.70;10.67;;;0.20;99.90;;;;;;4208607;28;20850;-47
2021/01/02 03:15:48;;;;;;;17.37;9.77;;;0.20;99.90;;;;;;4206752;28;20632;-43
2021/01/02 03:17:50;;;;;;;18.50;9.50;;;0.20;99.90;;;;;;4208252;28;20991;-44
2021/01/02 03:19:51;;;;;;;18.87;9.90;;;0.20;99.90;;;;;;4206808;28;20257;-45
2021/01/02 03:21:52;;;;;;;17.00;9.17;;;0.10;99.90;;;;;;4207169;28;20807;-43
2021/01/02 03:23:53;;;;;;;15.23;8.57;;;0.10;99.90;;;;;;4206725;28;20261;-44
2021/01/02 03:26:04;;;;;;;17.03;9.23;;;0.10;99.90;;;;;;4208051;28;20318;-50
2021/01/02 03:28:05;;;;;;;16.33;8.93;;;0.10;99.90;;;;;;4206611;28;20292;-43
2021/01/02 03:30:12;;;;;;;15.03;8.97;;;0.10;99.90;;;;;;4207428;28;20028;-46
2021/01/02 03:32:13;;;;;;;13.77;7.93;;;0.10;99.90;;;;;;4206447;28;20430;-40
2021/01/02 03:34:15;;;;;;;17.93;9.43;;;0.10;99.90;;;;;;4207226;28;20330;-50
2021/01/02 03:36:16;;;;;;;16.23;9.10;;;0.10;99.90;;;;;;4207318;28;20647;-44
2021/01/02 03:38:17;;;;;;;19.00;9.30;;;0.10;99.90;;;;;;4207135;28;20422;-51
2021/01/02 03:40:19;;;;;;;18.67;9.30;;;0.10;99.90;;;;;;4207106;28;20280;-45
2021/01/02 03:42:20;;;;;;;17.07;9.20;;;0.10;99.90;;;;;;4205946;28;20369;-44
2021/01/02 03:44:21;;;;;;;18.63;11.00;;;0.10;99.90;;;;;;4207720;28;20359;-45
2021/01/02 03:46:26;;;;;;;17.50;10.27;;;0.00;99.90;;;;;;4206059;28;20810;-47
2021/01/02 03:48:27;;;;;;;19.70;10.33;;;0.00;99.90;;;;;;4207412;28;20685;-44
2021/01/02 03:50:29;;;;;;;17.30;8.77;;;0.00;99.90;;;;;;4206935;28;20377;-45
2021/01/02 03:52:30;;;;;;;18.40;10.23;;;0.00;99.90;;;;;;4207261;28;20285;-49
2021/01/02 03:54:32;;;;;;;16.40;9.57;;;0.00;99.90;;;;;;4206136;28;20265;-42
2021/01/02 03:56:35;;;;;;;17.37;9.90;;;0.00;99.90;;;;;;4207678;28;20385;-46
2021/01/02 03:58:36;;;;;;;22.00;9.80;;;0.00;99.90;;;;;;4206622;28;20281;-44
2021/01/02 04:00:39;;;;;;;23.60;10.77;;;0.00;99.90;;;;;;4207990;28;20269;-45
2021/01/02 04:02:41;;;;;;;18.70;9.43;;;0.00;99.90;;;;;;4205888;28;21105;-44
2021/01/02 04:04:42;;;;;;;15.43;8.50;;;-0.10;99.90;;;;;;4207194;28;20272;-45
2021/01/02 04:06:43;;;;;;;15.97;9.57;;;0.00;99.90;;;;;;4206110;28;20257;-47
2021/01/02 04:08:44;;;;;;;15.33;8.53;;;-0.10;99.90;;;;;;4206631;28;20855;-43
2021/01/02 04:10:45;;;;;;;12.13;8.63;;;-0.10;99.90;;;;;;4206832;28;20256;-45
2021/01/02 04:12:46;;;;;;;16.37;8.73;;;-0.20;99.90;;;;;;4206881;28;20313;-45
2021/01/02 04:14:47;;;;;;;14.80;7.93;;;-0.20;99.90;;;;;;4207218;28;20353;-42
2021/01/02 04:16:48;;;;;;;15.30;8.23;;;-0.30;99.90;;;;;;4206282;28;20296;-42
2021/01/02 04:18:49;;;;;;;15.23;8.40;;;-0.30;99.90;;;;;;4207924;28;20272;-43
2021/01/02 04:20:51;;;;;;;16.97;9.80;;;-0.30;99.90;;;;;;4205854;28;20326;-46
2021/01/02 04:22:52;;;;;;;16.40;8.90;;;-0.40;99.90;;;;;;4207575;28;20322;-44
2021/01/02 04:24:53;;;;;;;16.03;8.77;;;-0.40;99.90;;;;;;4205884;28;20701;-45
2021/01/02 04:26:59;;;;;;;18.20;9.17;;;-0.50;99.90;;;;;;4207377;28;20260;-45
2021/01/02 04:29:00;;;;;;;18.37;8.60;;;-0.50;99.90;;;;;;4205744;28;20699;-47
2021/01/02 04:31:01;;;;;;;16.80;9.27;;;-0.50;99.90;;;;;;4206860;28;20330;-42
2021/01/02 04:33:03;;;;;;;15.07;7.87;;;-0.50;99.90;;;;;;4208420;28;20277;-44
2021/01/02 04:35:04;;;;;;;18.13;9.47;;;-0.60;99.90;;;;;;4210442;28;20361;-48
2021/01/02 04:37:05;;;;;;;16.20;8.90;;;-0.60;99.90;;;;;;4209592;28;20322;-43
2021/01/02 04:39:07;;;;;;;16.00;9.20;;;-0.60;99.90;;;;;;4210421;28;20253;-47
2021/01/02 04:41:08;;;;;;;16.33;8.97;;;-0.60;99.90;;;;;;4209579;28;20261;-48
2021/01/02 04:43:09;;;;;;;14.13;8.40;;;-0.70;99.90;;;;;;4209694;28;20273;-48
2021/01/02 04:45:11;;;;;;;17.53;8.73;;;-0.60;99.90;;;;;;4209880;28;20249;-43
2021/01/02 04:47:13;;;;;;;16.80;8.93;;;-0.60;99.90;;;;;;4209079;28;20257;-44
2021/01/02 04:49:14;;;;;;;16.77;9.10;;;-0.60;99.90;;;;;;4210525;28;20350;-43
2021/01/02 04:51:17;;;;;;;15.93;8.23;;;-0.60;99.90;;;;;;4209301;28;20334;-42
2021/01/02 04:53:20;;;;;;;15.97;8.60;;;-0.50;99.90;;;;;;4210325;28;20294;-45
2021/01/02 04:55:24;;;;;;;18.00;9.23;;;-0.50;99.90;;;;;;4208517;28;21189;-46
2021/01/02 04:57:25;;;;;;;17.47;9.17;;;-0.50;99.90;;;;;;4209830;28;20837;-47
2021/01/02 04:59:27;;;;;;;15.97;8.67;;;-0.50;99.90;;;;;;4208992;28;20268;-47
2021/01/02 05:01:29;;;;;;;16.67;8.87;;;-0.50;99.90;;;;;;4210136;28;20326;-49
2021/01/02 05:03:34;;;;;;;18.27;8.83;;;-0.50;99.90;;;;;;4209398;28;20276;-45
2021/01/02 05:05:35;;;;;;;16.93;8.87;;;-0.50;99.90;;;;;;4210449;28;20321;-44
2021/01/02 05:07:37;;;;;;;15.03;8.67;;;-0.50;99.90;;;;;;4209229;28;20280;-44
2021/01/02 05:09:38;;;;;;;15.93;9.07;;;-0.60;99.90;;;;;;4210210;28;20334;-44
2021/01/02 05:11:40;;;;;;;16.77;9.20;;;-0.60;99.90;;;;;;4208718;28;20342;-46
2021/01/02 05:13:41;;;;;;;15.23;8.10;;;-0.60;99.90;;;;;;4208885;28;20253;-45
2021/01/02 05:15:42;;;;;;;15.73;9.47;;;-0.60;99.90;;;;;;4209447;28;20825;-46
2021/01/02 05:17:47;;;;;;;20.73;10.20;;;-0.70;99.90;;;;;;4208908;28;20269;-44
2021/01/02 05:20:02;;;;;;;15.60;8.57;;;-0.70;99.90;;;;;;4209701;28;20318;-45
2021/01/02 05:22:03;;;;;;;16.30;9.57;;;-0.70;99.90;;;;;;4209266;28;20698;-48
2021/01/02 05:24:06;;;;;;;20.53;9.70;;;-0.70;99.90;;;;;;4209489;28;20386;-43
2021/01/02 05:26:07;;;;;;;19.93;10.33;;;-0.70;99.90;;;;;;4208713;28;20265;-48
2021/01/02 05:28:17;;;;;;;18.57;10.30;;;-0.70;99.90;;;;;;4209459;28;20277;-45
2021/01/02 05:30:25;;;;;;;18.17;10.40;;;-0.80;99.90;;;;;;4208039;28;20273;-43
2021/01/02 05:32:27;;;;;;;20.33;10.40;;;-0.80;99.90;;;;;;4209356;28;20738;-44
2021/01/02 05:34:33;;;;;;;23.93;10.13;;;-0.80;99.90;;;;;;4208483;28;20694;-46
2021/01/02 05:36:34;;;;;;;16.90;9.77;;;-0.80;99.90;;;;;;4209226;28;20264;-43
2021/01/02 05:38:39;;;;;;;20.87;10.03;;;-0.90;99.90;;;;;;4208136;28;20314;-43
2021/01/02 05:40:51;;;;;;;17.77;10.00;;;-0.90;99.90;;;;;;4209446;28;20252;-46
2021/01/02 05:42:56;;;;;;;17.67;10.10;;;-0.90;99.90;;;;;;4208457;28;20671;-48
2021/01/02 05:44:58;;;;;;;18.13;9.90;;;-0.90;99.90;;;;;;4208537;28;21101;-45
2021/01/02 05:46:59;;;;;;;22.70;11.10;;;-0.90;99.90;;;;;;4208287;28;20261;-49
2021/01/02 05:49:01;;;;;;;21.33;11.20;;;-1.00;99.90;;;;;;4209792;28;20342;-43
2021/01/02 05:51:02;;;;;;;18.70;10.20;;;-0.90;99.90;;;;;;4208310;28;20310;-45
2021/01/02 05:53:03;;;;;;;18.73;9.33;;;-0.90;99.90;;;;;;4209120;28;20310;-42
2021/01/02 05:55:05;;;;;;;20.63;11.20;;;-0.90;99.90;;;;;;4207710;28;20307;-44
2021/01/02 05:57:07;;;;;;;20.90;10.27;;;-0.90;99.90;;;;;;4208813;28;20245;-44
2021/01/02 05:59:08;;;;;;;19.57;9.97;;;-0.90;99.90;;;;;;4208084;28;20371;-43
2021/01/02 06:01:09;;;;;;;17.87;10.13;;;-0.90;99.90;;;;;;4209083;28;20269;-47
2021/01/02 06:03:26;;;;;;;15.93;8.77;;;-0.90;99.90;;;;;;4208565;28;20667;-44
2021/01/02 06:05:27;;;;;;;18.30;10.97;;;-0.90;99.90;;;;;;4208654;28;20647;-45
2021/01/02 06:07:30;;;;;;;18.63;10.20;;;-0.90;99.90;;;;;;4208371;28;20318;-45
2021/01/02 06:09:33;;;;;;;19.47;10.37;;;-0.90;99.90;;;;;;4208046;28;20288;-43
2021/01/02 06:11:34;;;;;;;33.87;16.10;;;-1.00;99.90;;;;;;4209141;28;20249;-47
2021/01/02 06:13:39;;;;;;;29.60;15.37;;;-0.90;99.90;;;;;;4207859;28;20269;-47
2021/01/02 06:15:40;;;;;;;24.27;13.23;;;-0.90;99.90;;;;;;4208675;28;20338;-43
2021/01/02 06:17:43;;;;;;;22.23;11.63;;;-1.00;99.90;;;;;;4207767;28;20265;-43
2021/01/02 06:19:44;;;;;;;15.27;9.33;;;-1.00;99.90;;;;;;4209053;28;20813;-45
2021/01/02 06:21:46;;;;;;;24.43;11.03;;;-1.00;99.90;;;;;;4207393;28;20280;-43
2021/01/02 06:23:48;;;;;;;21.33;11.87;;;-0.90;99.90;;;;;;4208349;28;20338;-49
2021/01/02 06:25:53;;;;;;;14.90;9.77;;;-0.70;99.90;;;;;;4207784;28;20326;-52
2021/01/02 06:27:54;;;;;;;17.63;9.60;;;-0.50;99.90;;;;;;4208733;28;20330;-46
2021/01/02 06:29:57;;;;;;;21.87;10.80;;;-0.30;99.90;;;;;;4206987;28;20354;-53
2021/01/02 06:31:59;;;;;;;15.83;9.87;;;-0.20;99.90;;;;;;4208794;28;20691;-47
2021/01/02 06:34:05;;;;;;;20.77;10.07;;;-0.10;99.90;;;;;;4207488;28;20281;-47
2021/01/02 06:36:28;;;;;;;16.30;9.47;;;0.10;99.90;;;;;;4208904;28;20334;-48
2021/01/02 06:38:29;;;;;;;17.80;8.73;;;0.20;99.90;;;;;;4207324;28;20314;-50
2021/01/02 06:40:37;;;;;;;17.90;10.17;;;0.30;99.90;;;;;;4208319;28;20441;-51
2021/01/02 06:42:38;;;;;;;15.80;9.73;;;0.50;99.90;;;;;;4207142;28;20273;-46
2021/01/02 06:44:44;;;;;;;17.30;9.37;;;0.60;99.90;;;;;;4207941;28;20280;-48
2021/01/02 06:46:45;;;;;;;16.63;10.03;;;0.90;99.90;;;;;;4207398;28;20268;-48
2021/01/02 06:48:47;;;;;;;15.60;9.63;;;1.20;99.90;;;;;;4207854;28;20296;-50
2021/01/02 06:50:56;;;;;;;16.90;9.87;;;1.20;99.90;;;;;;4208076;28;20364;-44
2021/01/02 06:53:16;;;;;;;15.70;10.20;;;1.30;99.90;;;;;;4208137;28;20277;-46
2021/01/02 06:55:21;;;;;;;18.15;10.15;;;1.40;99.90;;;;;;4206164;28;20269;-45
2021/01/02 06:57:26;;;;;;;17.17;10.77;;;1.30;99.90;;;;;;4207638;28;20040;-49
2021/01/02 06:59:28;;;;;;;15.40;8.87;;;1.30;99.90;;;;;;4206912;28;20859;-47
2021/01/02 07:01:29;;;;;;;14.93;9.37;;;1.30;99.90;;;;;;4206092;28;20663;-45
2021/01/02 07:03:42;;;;;;;17.37;9.40;;;1.20;99.90;;;;;;4207115;28;21105;-49
2021/01/02 07:05:47;;;;;;;13.30;7.80;;;1.30;99.90;;;;;;4206700;28;20264;-47
2021/01/02 07:07:48;;;;;;;16.50;9.63;;;1.30;99.90;;;;;;4206771;28;20294;-47
2021/01/02 07:09:49;;;;;;;14.67;8.50;;;1.30;99.90;;;;;;4205371;28;20288;-47
2021/01/02 07:12:05;;;;;;;13.37;8.97;;;1.50;99.90;;;;;;4206107;28;20698;-46
2021/01/02 07:14:12;;;;;;;14.70;9.03;;;1.40;99.90;;;;;;4205963;28;20326;-46
2021/01/02 07:16:32;;;;;;;14.93;8.83;;;1.50;99.90;;;;;;4207528;28;20264;-44
2021/01/02 07:18:39;;;;;;;16.60;9.88;;;1.60;99.90;;;;;;4206381;28;20329;-43
2021/01/02 07:20:40;;;;;;;15.17;8.97;;;1.80;99.90;;;;;;4207185;28;20454;-51
2021/01/02 07:22:42;;;;;;;16.00;8.97;;;2.30;99.90;;;;;;4205720;28;20333;-45
2021/01/02 07:24:52;;;;;;;20.70;10.87;;;2.70;99.90;;;;;;4207236;28;20328;-45
2021/01/02 07:26:56;;;;;;;;;;;3.00;99.90;;;;;;4206512;28;20264;-44
2021/01/02 07:28:59;;;;;;;15.30;9.60;;;3.30;99.90;;;;;;4206881;28;19916;-46
2021/01/02 07:31:01;;;;;;;15.97;9.20;;;3.30;99.90;;;;;;4205145;28;20284;-44
2021/01/02 07:33:02;;;;;;;12.30;7.43;;;3.10;99.90;;;;;;4206584;28;20109;-43
2021/01/02 07:35:11;;;;;;;13.80;8.70;;;3.00;99.90;;;;;;4205218;28;20301;-43
2021/01/02 07:37:14;;;;;;;14.23;8.73;;;3.00;99.90;;;;;;4207116;28;20036;-44
2021/01/02 07:39:18;;;;;;;13.10;8.80;;;3.10;99.90;;;;;;4205376;28;20036;-44
2021/01/02 07:41:19;;;;;;;12.80;8.57;;;3.10;99.90;;;;;;4205703;28;20448;-46
2021/01/02 07:43:21;;;;;;;13.63;8.43;;;2.90;99.90;;;;;;4205627;28;20043;-45
2021/01/02 07:45:27;;;;;;;12.57;8.63;;;2.90;99.90;;;;;;4205484;28;20085;-45
2021/01/02 07:47:28;;;;;;;14.73;8.93;;;3.00;99.90;;;;;;4205173;28;20102;-44
2021/01/02 07:49:30;;;;;;;13.50;7.77;;;3.00;99.90;;;;;;4207073;28;20073;-44
2021/01/02 07:51:31;;;;;;;11.33;7.83;;;2.90;99.90;;;;;;4205969;28;20086;-43
2021/01/02 07:53:33;;;;;;;12.40;7.10;;;2.70;99.90;;;;;;4202604;28;20088;-47
2021/01/02 07:55:34;;;;;;;15.47;8.27;;;2.70;99.90;;;;;;4195289;28;20098;-47
2021/01/02 07:57:36;;;;;;;14.50;7.57;;;2.80;99.90;;;;;;4189293;28;20044;-45
2021/01/02 07:59:39;;;;;;;13.97;7.83;;;3.10;99.90;;;;;;4206037;28;20028;-46
2021/01/02 08:01:47;;;;;;;11.17;7.60;;;3.30;99.90;;;;;;4205301;28;20044;-45
2021/01/02 08:03:49;;;;;;;12.27;7.80;;;3.30;99.90;;;;;;4206756;28;20310;-41
2021/01/02 08:05:50;;;;;;;11.97;7.47;;;3.10;99.90;;;;;;4206446;28;20249;-42
2021/01/02 08:07:56;;;;;;;13.00;7.80;;;3.10;99.90;;;;;;4207133;28;20716;-44
2021/01/02 08:09:57;;;;;;;12.67;7.57;;;3.00;99.90;;;;;;4205690;28;20048;-43
2021/01/02 08:12:01;;;;;;;14.03;7.53;;;3.00;99.90;;;;;;4207229;28;20740;-42
2021/01/02 08:14:03;;;;;;;14.07;7.40;;;3.00;99.90;;;;;;4206414;28;20326;-48
2021/01/02 08:16:04;;;;;;;14.23;7.50;;;2.90;99.90;;;;;;4207709;28;20661;-46
2021/01/02 08:18:06;;;;;;;18.00;8.73;;;2.80;99.90;;;;;;4206178;28;20273;-42
2021/01/02 08:20:08;;;;;;;13.33;7.83;;;2.70;99.90;;;;;;4201026;28;20319;-43
2021/01/02 08:22:10;;;;;;;13.43;7.73;;;2.70;99.90;;;;;;4193305;28;20265;-48
2021/01/02 08:24:12;;;;;;;12.90;7.93;;;2.70;99.90;;;;;;4207246;28;20261;-44
2021/01/02 08:26:14;;;;;;;14.93;8.43;;;2.70;99.90;;;;;;4205913;28;20338;-43
2021/01/02 08:28:15;;;;;;;17.40;8.10;;;2.70;99.90;;;;;;4206183;28;20345;-48
2021/01/02 08:30:17;;;;;;;16.10;7.80;;;2.80;99.90;;;;;;4205722;28;20314;-44
2021/01/02 08:32:23;;;;;;;11.40;7.20;;;2.90;99.90;;;;;;4204992;28;20326;-47
2021/01/02 08:34:33;;;;;;;9.57;6.33;;;3.00;99.90;;;;;;4207017;28;20756;-44
2021/01/02 08:36:40;;;;;;;9.57;6.30;;;3.20;99.90;;;;;;4205828;28;20353;-43
2021/01/02 08:38:42;;;;;;;10.37;6.00;;;3.30;99.90;;;;;;4206970;28;20281;-46
2021/01/02 08:40:47;;;;;;;12.77;6.03;;;3.40;99.90;;;;;;4206172;28;20281;-53
2021/01/02 08:42:48;;;;;;;10.30;6.10;;;3.40;99.90;;;;;;4207048;28;20678;-44
2021/01/02 08:44:49;;;;;;;10.30;5.43;;;3.40;99.90;;;;;;4205298;28;20268;-48
2021/01/02 08:46:51;;;;;;;9.27;5.67;;;3.40;99.90;;;;;;4206624;28;20330;-43
2021/01/02 08:48:52;;;;;;;8.93;5.17;;;3.30;99.90;;;;;;4205286;28;20337;-46
2021/01/02 08:50:53;;;;;;;7.93;5.13;;;3.40;99.90;;;;;;4207541;28;20736;-50
2021/01/02 08:52:55;;;;;;;9.17;5.53;;;3.50;99.90;;;;;;4205516;28;20350;-51
2021/01/02 08:55:16;;;;;;;11.77;6.43;;;3.50;99.90;;;;;;4206864;28;20281;-52
2021/01/02 08:57:54;;;;;;;11.37;5.60;;;3.60;99.90;;;;;;4205272;28;20273;-53
2021/01/02 09:00:10;;;;;;;9.87;5.20;;;3.70;99.90;;;;;;4189885;28;20339;-44
2021/01/02 09:02:20;;;;;;;8.50;5.30;;;3.70;99.90;;;;;;4189149;28;20277;-54
2021/01/02 09:04:21;;;;;;;6.63;4.37;;;3.70;99.90;;;;;;4191855;28;20273;-48
2021/01/02 09:06:26;;;;;;;6.63;4.33;;;3.80;99.90;;;;;;4204778;28;20265;-46
2021/01/02 09:08:27;;;;;;;7.93;4.87;;;3.80;99.90;;;;;;4206278;28;20318;-46
2021/01/02 09:10:55;;;;;;;7.20;4.83;;;3.80;99.90;;;;;;4205278;28;20280;-45
2021/01/02 09:13:00;;;;;;;11.70;5.77;;;3.70;99.90;;;;;;4206283;28;20683;-43
2021/01/02 09:15:01;;;;;;;8.73;4.97;;;3.70;99.90;;;;;;4205302;28;20349;-46
2021/01/02 09:17:03;;;;;;;7.77;5.53;;;3.80;99.90;;;;;;4207149;28;20350;-50
2021/01/02 09:19:04;;;;;;;12.17;6.20;;;3.70;99.90;;;;;;4205324;28;20321;-45
2021/01/02 09:21:05;;;;;;;7.93;5.00;;;3.60;99.90;;;;;;4209689;28;20326;-51
2021/01/02 09:23:08;;;;;;;10.73;5.87;;;3.60;99.90;;;;;;4208607;28;20349;-38
2021/01/02 09:25:12;;;;;;;10.10;4.73;;;3.50;99.90;;;;;;4209860;28;20342;-41
2021/01/02 09:27:13;;;;;;;11.30;6.17;;;3.50;99.90;;;;;;4207853;28;20406;-50
2021/01/02 09:29:16;;;;;;;7.70;4.53;;;3.40;99.90;;;;;;4209939;28;20319;-44
2021/01/02 09:31:19;;;;;;;7.40;4.57;;;3.50;99.90;;;;;;4207771;28;20404;-50
2021/01/02 09:33:20;;;;;;;7.03;5.17;;;3.50;99.90;;;;;;4209288;28;20280;-49
2021/01/02 09:35:21;;;;;;;9.17;5.03;;;3.60;99.90;;;;;;4207411;28;20333;-43
2021/01/02 09:37:22;;;;;;;9.13;5.47;;;3.60;99.90;;;;;;4208536;28;20281;-45
2021/01/02 09:39:23;;;;;;;9.33;6.10;;;3.60;99.90;;;;;;4208620;28;20302;-43
2021/01/02 09:41:25;;;;;;;11.70;6.17;;;3.70;99.90;;;;;;4207967;28;20330;-42
2021/01/02 09:43:28;;;;;;;10.97;5.70;;;3.70;99.90;;;;;;4208788;28;20314;-43
2021/01/02 09:45:29;;;;;;;8.63;6.00;;;3.70;99.90;;;;;;4208150;28;21115;-44
2021/01/02 09:47:30;;;;;;;11.93;6.23;;;3.70;99.90;;;;;;4208843;28;20697;-48
2021/01/02 09:49:31;;;;;;;8.27;5.47;;;3.80;99.90;;;;;;4208145;28;20626;-52
2021/01/02 09:51:33;;;;;;;9.30;5.70;;;3.80;99.90;;;;;;4209436;28;20276;-47
2021/01/02 09:53:34;;;;;;;11.03;6.13;;;3.80;99.90;;;;;;4207866;28;20277;-49
2021/01/02 09:55:35;;;;;;;10.37;5.90;;;3.90;99.90;;;;;;4208818;28;20346;-52
2021/01/02 09:57:37;;;;;;;19.73;6.90;;;3.90;99.90;;;;;;4208151;28;20273;-46
2021/01/02 09:59:38;;;;;;;13.47;7.07;;;3.90;99.90;;;;;;4208829;28;20269;-49
2021/01/02 10:01:39;;;;;;;11.67;6.67;;;4.00;99.90;;;;;;4207824;28;20265;-52
2021/01/02 10:03:40;;;;;;;13.97;7.50;;;4.10;99.90;;;;;;4207443;28;20401;-48
2021/01/02 10:05:42;;;;;;;11.77;6.93;;;4.10;99.90;;;;;;4205804;28;20314;-50
2021/01/02 10:07:44;;;;;;;9.53;6.10;;;4.10;99.90;;;;;;4208607;28;20675;-51
2021/01/02 10:09:46;;;;;;;23.83;10.40;;;4.20;99.90;;;;;;4207932;28;20300;-48
2021/01/02 10:11:47;;;;;;;15.17;7.77;;;4.20;99.90;;;;;;4204867;28;20305;-51
2021/01/02 10:13:48;;;;;;;11.57;7.50;;;4.30;99.90;;;;;;4208107;28;21082;-48
2021/01/02 10:15:49;;;;;;;13.93;7.00;;;4.40;99.90;;;;;;4207780;28;20270;-53
2021/01/02 10:17:51;;;;;;;11.97;7.07;;;4.50;99.90;;;;;;4209100;28;20546;-48
2021/01/02 10:19:52;;;;;;;9.97;5.50;;;4.50;99.90;;;;;;4207649;28;20269;-47
2021/01/02 10:21:53;;;;;;;9.77;5.20;;;4.50;99.90;;;;;;4208639;28;20276;-47
2021/01/02 10:23:54;;;;;;;9.17;5.33;;;4.50;99.90;;;;;;4207415;28;20338;-49
2021/01/02 10:25:55;;;;;;;8.50;5.63;;;4.50;99.90;;;;;;4208600;28;20734;-49
2021/01/02 10:27:56;;;;;;;10.43;5.80;;;4.40;99.90;;;;;;4207963;28;20405;-47
2021/01/02 10:29:57;;;;;;;9.87;6.10;;;4.50;99.90;;;;;;4208668;28;20293;-50
2021/01/02 10:32:01;;;;;;;10.53;5.60;;;4.50;99.90;;;;;;4207389;28;20264;-48
2021/01/02 10:34:02;;;;;;;10.37;7.00;;;4.40;99.90;;;;;;4208105;28;20671;-47
2021/01/02 10:36:03;;;;;;;10.80;5.60;;;4.50;99.90;;;;;;4207527;28;20261;-48
2021/01/02 10:38:04;;;;;;;13.53;4.70;;;4.50;99.90;;;;;;4207767;28;20618;-56
2021/01/02 10:40:07;;;;;;;9.53;6.10;;;4.50;99.90;;;;;;4207188;28;20249;-46
2021/01/02 10:42:11;;;;;;;10.00;5.47;;;4.70;99.90;;;;;;4207485;28;20273;-47
2021/01/02 10:44:12;;;;;;;10.50;5.40;;;4.80;99.90;;;;;;4207719;28;20276;-54
2021/01/02 10:46:14;;;;;;;9.10;5.13;;;4.90;99.90;;;;;;4206744;28;20814;-53
2021/01/02 10:48:15;;;;;;;10.27;5.60;;;5.00;99.90;;;;;;4207989;28;20272;-50
2021/01/02 10:50:16;;;;;;;8.27;5.17;;;5.10;99.90;;;;;;4207557;28;20300;-46